createdAt,value
2022-08-22T00:01:27.764Z,21.05
2022-08-22T00:02:57.731Z,20.98
2022-08-22T00:04:11.808Z,21.03
2022-08-22T00:06:53.434Z,21.01
2022-08-22T00:09:36.113Z,20.98
2022-08-22T00:12:20.217Z,20.95
2022-08-22T00:14:59.320Z,20.94
2022-08-22T00:17:42.980Z,20.92
2022-08-22T00:20:21.296Z,20.90
2022-08-22T00:22:59.992Z,20.82
2022-08-22T00:25:43.465Z,20.81
2022-08-22T00:28:18.320Z,20.79
2022-08-22T00:30:55.657Z,20.73
2022-08-22T00:33:35.236Z,20.72
2022-08-22T00:36:16.294Z,20.72
2022-08-22T00:38:54.085Z,20.71
2022-08-22T00:42:31.529Z,20.68
2022-08-22T00:45:47.846Z,20.66
2022-08-22T00:49:03.965Z,20.64
2022-08-22T00:52:18.851Z,20.61
2022-08-22T00:55:14.797Z,20.59
2022-08-22T00:58:06.339Z,20.58
2022-08-22T01:00:44.906Z,20.57
2022-08-22T01:03:54.304Z,20.53
2022-08-22T01:06:31.461Z,20.55
2022-08-22T01:09:10.591Z,20.54
2022-08-22T01:12:05.649Z,20.52
2022-08-22T01:14:47.696Z,20.50
2022-08-22T01:18:09.389Z,20.47
2022-08-22T01:21:28.422Z,20.46
2022-08-22T01:25:19.985Z,20.41
2022-08-22T01:29:11.616Z,20.37
2022-08-22T01:32:26.524Z,20.34
2022-08-22T01:35:29.867Z,20.34
2022-08-22T01:38:33.812Z,20.30
2022-08-22T01:41:43.085Z,20.28
2022-08-22T01:44:41.866Z,20.23
2022-08-22T01:47:16.060Z,20.24
2022-08-22T01:49:49.826Z,20.23
2022-08-22T01:52:36.785Z,20.18
2022-08-22T01:55:12.597Z,20.16
2022-08-22T01:57:54.426Z,20.13
2022-08-22T02:00:35.207Z,20.09
2022-08-22T02:03:18.622Z,20.06
2022-08-22T02:05:59.973Z,20.03
2022-08-22T02:08:41.588Z,20.01
2022-08-22T02:11:14.292Z,20.01
2022-08-22T02:13:56.088Z,19.98
2022-08-22T02:16:34.288Z,19.96
2022-08-22T02:19:22.211Z,19.94
2022-08-22T02:21:57.206Z,19.93
2022-08-22T02:24:48.471Z,19.88
2022-08-22T02:27:31.769Z,19.86
2022-08-22T02:30:10.092Z,19.84
2022-08-22T02:33:03.458Z,19.79
2022-08-22T02:35:38.736Z,19.80
2022-08-22T02:38:26.320Z,19.75
2022-08-22T02:41:15.209Z,19.72
2022-08-22T02:43:50.600Z,19.69
2022-08-22T02:46:31.388Z,19.65
2022-08-22T02:49:10.104Z,19.60
2022-08-22T02:51:48.292Z,19.55
2022-08-22T02:54:27.157Z,19.50
2022-08-22T02:57:03.500Z,19.46
2022-08-22T02:59:39.537Z,19.42
2022-08-22T03:02:29.628Z,19.30
2022-08-22T03:05:02.197Z,19.27
2022-08-22T03:07:42.332Z,19.22
2022-08-22T03:10:22.986Z,19.16
2022-08-22T03:13:03.781Z,19.10
2022-08-22T03:15:39.435Z,19.08
2022-08-22T03:18:26.697Z,19.02
2022-08-22T03:21:00.994Z,18.97
2022-08-22T03:23:41.865Z,18.91
2022-08-22T03:26:18.943Z,18.86
2022-08-22T03:29:00.202Z,18.83
2022-08-22T03:31:32.008Z,18.78
2022-08-22T03:34:22.473Z,18.71
2022-08-22T03:37:08.797Z,18.66
2022-08-22T03:39:49.996Z,18.62
2022-08-22T03:42:43.425Z,18.56
2022-08-22T03:46:00.305Z,18.52
2022-08-22T03:49:07.433Z,18.46
2022-08-22T03:52:03.151Z,18.42
2022-08-22T03:55:17.289Z,18.38
2022-08-22T03:58:32.938Z,18.34
2022-08-22T04:01:39.738Z,18.30
2022-08-22T04:04:54.247Z,18.24
2022-08-22T04:08:02.879Z,18.20
2022-08-22T04:10:52.723Z,18.17
2022-08-22T04:14:03.777Z,18.11
2022-08-22T04:17:12.988Z,18.06
2022-08-22T04:20:46.801Z,18.02
2022-08-22T04:24:06.517Z,17.97
2022-08-22T04:26:43.715Z,17.93
2022-08-22T04:29:20.692Z,17.90
2022-08-22T04:31:56.301Z,17.88
2022-08-22T04:34:37.129Z,17.86
2022-08-22T04:37:14.773Z,17.83
2022-08-22T04:39:54.420Z,17.79
2022-08-22T04:42:33.259Z,17.78
2022-08-22T04:45:09.855Z,17.77
2022-08-22T04:47:43.214Z,17.77
2022-08-22T04:50:22.770Z,17.75
2022-08-22T04:53:13.879Z,17.72
2022-08-22T04:55:55.753Z,17.74
2022-08-22T04:58:37.689Z,17.70
2022-08-22T05:01:16.577Z,17.70
2022-08-22T05:03:54.380Z,17.64
2022-08-22T05:06:29.636Z,17.61
2022-08-22T05:09:05.600Z,17.60
2022-08-22T05:11:36.780Z,17.62
2022-08-22T05:14:09.591Z,17.63
2022-08-22T05:16:42.527Z,17.65
2022-08-22T05:19:16.854Z,17.67
2022-08-22T05:21:50.713Z,17.68
2022-08-22T05:24:28.004Z,17.67
2022-08-22T05:27:00.861Z,17.69
2022-08-22T05:29:33.986Z,17.70
2022-08-22T05:32:07.562Z,17.71
2022-08-22T05:34:40.108Z,17.72
2022-08-22T05:37:16.044Z,17.72
2022-08-22T05:39:50.845Z,17.75
2022-08-22T05:42:23.765Z,17.72
2022-08-22T05:44:52.679Z,17.78
2022-08-22T05:47:24.853Z,17.83
2022-08-22T05:50:06.166Z,17.88
2022-08-22T05:52:51.976Z,17.93
2022-08-22T05:55:29.452Z,17.96
2022-08-22T05:58:24.914Z,17.99
2022-08-22T06:01:00.112Z,18.05
2022-08-22T06:03:34.852Z,18.11
2022-08-22T06:06:09.920Z,18.11
2022-08-22T06:08:44.369Z,18.16
2022-08-22T06:11:19.237Z,18.22
2022-08-22T06:13:58.860Z,18.30
2022-08-22T06:16:39.169Z,18.38
2022-08-22T06:19:19.238Z,18.44
2022-08-22T06:21:51.774Z,18.50
2022-08-22T06:24:27.202Z,18.55
2022-08-22T06:27:03.204Z,18.60
2022-08-22T06:29:36.692Z,18.64
2022-08-22T06:32:13.213Z,18.70
2022-08-22T06:34:46.369Z,18.78
2022-08-22T06:37:23.550Z,18.86
2022-08-22T06:39:55.010Z,18.93
2022-08-22T06:42:26.299Z,19.02
2022-08-22T06:45:00.785Z,19.08
2022-08-22T06:47:33.997Z,19.14
2022-08-22T06:50:07.431Z,19.23
2022-08-22T06:52:52.937Z,19.31
2022-08-22T06:55:24.040Z,19.40
2022-08-22T06:57:58.019Z,19.49
2022-08-22T07:00:27.838Z,19.57
2022-08-22T07:03:02.094Z,19.68
2022-08-22T07:05:38.913Z,19.80
2022-08-22T07:08:12.131Z,19.99
2022-08-22T07:10:45.285Z,20.39
2022-08-22T07:13:18.132Z,21.08
2022-08-22T07:15:56.220Z,21.92
2022-08-22T07:18:28.294Z,22.67
2022-08-22T07:20:59.258Z,23.40
2022-08-22T07:23:36.082Z,24.04
2022-08-22T07:26:27.529Z,24.67
2022-08-22T07:29:00.721Z,25.15
2022-08-22T07:31:41.212Z,25.54
2022-08-22T07:34:27.079Z,25.94
2022-08-22T07:37:03.277Z,26.26
2022-08-22T07:39:38.440Z,26.44
2022-08-22T07:42:15.268Z,26.60
2022-08-22T07:45:01.967Z,26.67
2022-08-22T07:47:49.784Z,26.60
2022-08-22T07:50:26.049Z,26.57
2022-08-22T07:52:59.004Z,26.38
2022-08-22T07:55:28.652Z,26.23
2022-08-22T07:58:03.926Z,26.08
2022-08-22T08:00:33.964Z,26.12
2022-08-22T08:03:08.079Z,26.02
2022-08-22T08:05:39.826Z,25.82
2022-08-22T08:08:15.719Z,25.62
2022-08-22T08:10:44.746Z,25.48
2022-08-22T08:13:21.612Z,25.53
2022-08-22T08:15:51.973Z,25.81
2022-08-22T08:18:25.913Z,25.87
2022-08-22T08:20:58.888Z,26.28
2022-08-22T08:23:39.583Z,26.90
2022-08-22T08:26:15.815Z,27.55
2022-08-22T08:28:48.159Z,28.14
2022-08-22T08:31:25.045Z,28.63
2022-08-22T08:34:03.229Z,29.11
2022-08-22T08:36:42.230Z,29.64
2022-08-22T08:39:22.273Z,29.90
2022-08-22T08:42:33.750Z,30.16
2022-08-22T08:45:41.140Z,30.51
2022-08-22T08:48:49.794Z,30.92
2022-08-22T08:51:44.265Z,31.30
2022-08-22T08:54:43.418Z,31.78
2022-08-22T08:57:24.128Z,32.24
2022-08-22T09:00:04.011Z,32.59
2022-08-22T09:03:06.969Z,32.84
2022-08-22T09:06:17.182Z,33.02
2022-08-22T09:09:12.124Z,33.13
2022-08-22T09:12:23.438Z,33.23
2022-08-22T09:15:21.834Z,33.61
2022-08-22T09:18:55.741Z,33.83
2022-08-22T09:22:04.038Z,33.82
2022-08-22T09:25:16.597Z,33.92
2022-08-22T09:27:56.649Z,34.09
2022-08-22T09:30:36.789Z,34.27
2022-08-22T09:33:14.559Z,34.37
2022-08-22T09:35:56.333Z,34.47
2022-08-22T09:38:38.082Z,34.61
2022-08-22T09:41:24.601Z,34.81
2022-08-22T09:44:08.530Z,35.04
2022-08-22T09:47:06.790Z,35.19
2022-08-22T09:49:53.130Z,35.35
2022-08-22T09:52:59.101Z,35.55
2022-08-22T09:55:50.162Z,35.70
2022-08-22T09:58:43.784Z,35.88
2022-08-22T10:01:26.990Z,35.76
2022-08-22T10:04:42.705Z,35.81
2022-08-22T10:07:44.449Z,35.82
2022-08-22T10:10:42.433Z,36.01
2022-08-22T10:13:31.973Z,36.32
2022-08-22T10:16:19.886Z,36.65
2022-08-22T10:19:00.699Z,36.57
2022-08-22T10:21:41.530Z,36.31
2022-08-22T10:24:28.304Z,35.99
2022-08-22T10:27:09.954Z,35.72
2022-08-22T10:30:03.849Z,35.33
2022-08-22T10:32:39.471Z,35.35
2022-08-22T10:35:22.933Z,35.67
2022-08-22T10:38:00.640Z,35.83
2022-08-22T10:40:38.978Z,35.89
2022-08-22T10:43:20.328Z,35.96
2022-08-22T10:46:06.819Z,36.15
2022-08-22T10:48:58.073Z,36.41
2022-08-22T10:51:37.550Z,36.75
2022-08-22T10:54:52.569Z,37.16
2022-08-22T10:57:52.884Z,37.68
2022-08-22T11:00:46.252Z,37.75
2022-08-22T11:03:26.413Z,37.58
2022-08-22T11:06:00.197Z,37.80
2022-08-22T11:09:07.722Z,38.22
2022-08-22T11:11:48.480Z,38.38
2022-08-22T11:14:51.501Z,38.28
2022-08-22T11:17:53.916Z,37.44
2022-08-22T11:20:29.477Z,36.57
2022-08-22T11:23:20.876Z,35.92
2022-08-22T11:26:04.126Z,35.47
2022-08-22T11:29:13.571Z,34.89
2022-08-22T11:31:56.224Z,34.29
2022-08-22T11:34:52.620Z,33.72
2022-08-22T11:37:42.587Z,33.53
2022-08-22T11:40:31.397Z,33.90
2022-08-22T11:43:18.251Z,33.99
2022-08-22T11:45:52.394Z,33.88
2022-08-22T11:48:31.709Z,33.86
2022-08-22T11:51:15.757Z,33.93
2022-08-22T11:53:49.988Z,34.60
2022-08-22T11:56:29.037Z,35.37
2022-08-22T11:59:05.163Z,36.04
2022-08-22T12:01:45.444Z,36.52
2022-08-22T12:04:22.398Z,36.91
2022-08-22T12:07:03.082Z,37.43
2022-08-22T12:09:55.690Z,37.97
2022-08-22T12:12:55.525Z,38.46
2022-08-22T12:15:30.056Z,38.57
2022-08-22T12:18:53.011Z,38.76
2022-08-22T12:22:11.733Z,39.14
2022-08-22T12:25:03.047Z,39.33
2022-08-22T12:27:55.245Z,39.45
2022-08-22T12:30:38.608Z,39.37
2022-08-22T12:33:41.414Z,39.36
2022-08-22T12:37:08.344Z,39.20
2022-08-22T12:40:20.556Z,38.50
2022-08-22T12:43:32.564Z,38.25
2022-08-22T12:46:19.294Z,38.50
2022-08-22T12:49:27.905Z,38.63
2022-08-22T12:52:19.669Z,38.84
2022-08-22T12:55:25.441Z,39.22
2022-08-22T12:58:09.621Z,39.63
2022-08-22T13:00:43.840Z,39.56
2022-08-22T13:03:24.912Z,38.97
2022-08-22T13:05:59.953Z,39.02
2022-08-22T13:08:34.152Z,39.13
2022-08-22T13:11:12.457Z,38.99
2022-08-22T13:13:57.331Z,39.05
2022-08-22T13:16:36.374Z,39.10
2022-08-22T13:19:13.743Z,39.42
2022-08-22T13:21:49.901Z,39.75
2022-08-22T13:24:38.906Z,40.01
2022-08-22T13:27:16.881Z,40.04
2022-08-22T13:29:57.085Z,40.07
2022-08-22T13:32:34.095Z,40.32
2022-08-22T13:35:04.691Z,40.66
2022-08-22T13:37:40.656Z,41.03
2022-08-22T13:40:15.379Z,41.29
2022-08-22T13:42:49.751Z,41.43
2022-08-22T13:45:28.636Z,41.27
2022-08-22T13:48:03.937Z,41.22
2022-08-22T13:50:53.584Z,40.91
2022-08-22T13:53:34.091Z,40.63
2022-08-22T13:56:15.835Z,40.49
2022-08-22T13:58:48.687Z,40.45
2022-08-22T14:01:34.607Z,40.39
2022-08-22T14:04:28.613Z,40.28
2022-08-22T14:07:29.841Z,39.98
2022-08-22T14:10:03.991Z,40.09
2022-08-22T14:12:50.745Z,40.15
2022-08-22T14:15:25.999Z,40.36
2022-08-22T14:18:12.317Z,40.39
2022-08-22T14:20:43.556Z,40.68
2022-08-22T14:23:18.631Z,41.06
2022-08-22T14:25:48.088Z,41.14
2022-08-22T14:28:27.581Z,41.10
2022-08-22T14:31:02.530Z,40.67
2022-08-22T14:33:39.723Z,39.98
2022-08-22T14:36:17.566Z,39.78
2022-08-22T14:38:51.713Z,39.91
2022-08-22T14:41:52.588Z,40.39
2022-08-22T14:44:30.595Z,40.60
2022-08-22T14:47:04.436Z,40.72
2022-08-22T14:49:57.971Z,40.95
2022-08-22T14:52:42.806Z,41.11
2022-08-22T14:55:21.152Z,41.51
2022-08-22T14:57:55.603Z,41.73
2022-08-22T15:00:33.501Z,41.84
2022-08-22T15:03:27.298Z,42.00
2022-08-22T15:06:00.510Z,42.13
2022-08-22T15:08:34.863Z,42.23
2022-08-22T15:11:21.719Z,42.36
2022-08-22T15:14:03.035Z,42.48
2022-08-22T15:16:36.928Z,42.51
2022-08-22T15:19:27.712Z,42.71
2022-08-22T15:22:15.933Z,42.80
2022-08-22T15:24:50.756Z,42.76
2022-08-22T15:27:27.646Z,42.87
2022-08-22T15:29:59.399Z,42.97
2022-08-22T15:32:32.326Z,42.96
2022-08-22T15:35:07.173Z,42.84
2022-08-22T15:37:57.137Z,42.75
2022-08-22T15:40:41.872Z,42.50
2022-08-22T15:43:22.817Z,42.25
2022-08-22T15:46:09.844Z,42.06
2022-08-22T15:48:56.584Z,41.98
2022-08-22T15:51:43.201Z,41.72
2022-08-22T15:54:24.624Z,41.24
2022-08-22T15:57:18.155Z,40.87
2022-08-22T15:59:57.306Z,40.52
2022-08-22T16:02:35.238Z,40.37
2022-08-22T16:05:26.139Z,40.34
2022-08-22T16:08:05.770Z,40.05
2022-08-22T16:10:41.017Z,39.76
2022-08-22T16:13:38.126Z,39.59
2022-08-22T16:16:13.445Z,39.31
2022-08-22T16:19:18.593Z,39.14
2022-08-22T16:22:20.071Z,38.91
2022-08-22T16:25:14.428Z,38.86
2022-08-22T16:27:58.584Z,38.98
2022-08-22T16:30:39.578Z,39.02
2022-08-22T16:33:17.800Z,39.15
2022-08-22T16:36:41.966Z,39.27
2022-08-22T16:39:29.625Z,39.22
2022-08-22T16:42:25.267Z,39.24
2022-08-22T16:45:09.527Z,38.87
2022-08-22T16:47:52.198Z,38.70
2022-08-22T16:50:35.477Z,38.68
2022-08-22T16:53:10.075Z,38.67
2022-08-22T16:55:59.923Z,38.70
2022-08-22T16:59:23.756Z,38.38
2022-08-22T17:02:26.597Z,37.82
2022-08-22T17:05:19.330Z,36.81
2022-08-22T17:08:06.884Z,36.03
2022-08-22T17:10:51.213Z,35.50
2022-08-22T17:13:49.940Z,35.41
2022-08-22T17:16:36.662Z,35.58
2022-08-22T17:19:22.337Z,35.63
2022-08-22T17:21:56.778Z,35.47
2022-08-22T17:24:34.448Z,35.09
2022-08-22T17:27:17.452Z,34.58
2022-08-22T17:30:04.047Z,34.23
2022-08-22T17:32:58.265Z,33.89
2022-08-22T17:35:50.157Z,33.44
2022-08-22T17:38:43.745Z,33.13
2022-08-22T17:41:26.989Z,32.90
2022-08-22T17:44:10.485Z,32.82
2022-08-22T17:46:48.308Z,32.62
2022-08-22T17:49:28.674Z,32.36
2022-08-22T17:52:08.205Z,32.06
2022-08-22T17:54:42.312Z,31.83
2022-08-22T17:57:21.885Z,31.71
2022-08-22T17:59:56.329Z,31.52
2022-08-22T18:02:29.881Z,31.25
2022-08-22T18:05:07.961Z,30.92
2022-08-22T18:08:01.685Z,30.58
2022-08-22T18:10:41.320Z,30.30
2022-08-22T18:13:15.635Z,30.08
2022-08-22T18:15:53.245Z,29.85
2022-08-22T18:18:32.025Z,29.64
2022-08-22T18:21:07.246Z,29.45
2022-08-22T18:23:43.552Z,29.28
2022-08-22T18:26:27.203Z,29.07
2022-08-22T18:29:01.441Z,28.89
2022-08-22T18:31:40.317Z,28.67
2022-08-22T18:34:30.977Z,28.45
2022-08-22T18:37:07.197Z,28.29
2022-08-22T18:39:49.711Z,28.14
2022-08-22T18:42:29.237Z,28.04
2022-08-22T18:44:58.171Z,27.96
2022-08-22T18:47:32.750Z,27.88
2022-08-22T18:50:24.446Z,27.79
2022-08-22T18:52:55.210Z,27.69
2022-08-22T18:55:49.382Z,27.60
2022-08-22T18:59:05.481Z,27.47
2022-08-22T19:01:50.775Z,27.37
2022-08-22T19:04:58.357Z,27.26
2022-08-22T19:07:55.303Z,27.16
2022-08-22T19:10:53.946Z,27.07
2022-08-22T19:13:55.690Z,26.97
2022-08-22T19:16:53.216Z,26.88
2022-08-22T19:19:55.853Z,26.80
2022-08-22T19:22:29.219Z,26.69
2022-08-22T19:25:16.882Z,26.55
2022-08-22T19:28:09.490Z,26.48
2022-08-22T19:30:45.500Z,26.38
2022-08-22T19:33:19.388Z,26.32
2022-08-22T19:36:13.326Z,26.21
2022-08-22T19:39:02.180Z,26.08
2022-08-22T19:41:57.018Z,25.99
2022-08-22T19:44:42.864Z,25.86
2022-08-22T19:47:28.214Z,25.76
2022-08-22T19:50:06.007Z,25.67
2022-08-22T19:53:12.073Z,25.54
2022-08-22T19:55:59.508Z,25.45
2022-08-22T19:58:42.161Z,25.38
2022-08-22T20:01:45.463Z,25.29
2022-08-22T20:05:02.516Z,25.21
2022-08-22T20:07:46.977Z,25.15
2022-08-22T20:10:29.556Z,25.06
2022-08-22T20:13:07.625Z,25.00
2022-08-22T20:16:07.191Z,24.92
2022-08-22T20:19:21.871Z,24.82
2022-08-22T20:21:58.026Z,24.79
2022-08-22T20:24:39.821Z,24.74
2022-08-22T20:27:15.958Z,24.69
2022-08-22T20:29:52.928Z,24.66
2022-08-22T20:32:24.753Z,24.58
2022-08-22T20:34:59.780Z,24.52
2022-08-22T20:37:56.169Z,24.44
2022-08-22T20:40:57.329Z,24.36
2022-08-22T20:43:35.221Z,24.27
2022-08-22T20:46:23.932Z,24.23
2022-08-22T20:48:56.462Z,24.17
2022-08-22T20:51:28.956Z,24.11
2022-08-22T20:54:00.796Z,24.06
2022-08-22T20:56:48.657Z,24.01
2022-08-22T20:59:30.659Z,23.95
2022-08-22T21:02:11.328Z,23.90
2022-08-22T21:04:48.521Z,23.88
2022-08-22T21:07:28.402Z,23.85
2022-08-22T21:10:22.638Z,23.83
2022-08-22T21:13:06.008Z,23.77
2022-08-22T21:15:39.037Z,23.75
2022-08-22T21:18:07.814Z,23.72
2022-08-22T21:20:39.631Z,23.67
2022-08-22T21:23:15.242Z,23.62
2022-08-22T21:25:58.485Z,23.58
2022-08-22T21:28:36.811Z,23.56
2022-08-22T21:31:17.330Z,23.52
2022-08-22T21:33:50.259Z,23.49
2022-08-22T21:36:21.873Z,23.44
2022-08-22T21:38:55.521Z,23.39
2022-08-22T21:41:38.101Z,23.32
2022-08-22T21:44:33.251Z,23.24
2022-08-22T21:47:30.502Z,23.19
2022-08-22T21:50:08.811Z,23.14
2022-08-22T21:52:39.814Z,23.10
2022-08-22T21:55:24.792Z,23.03
2022-08-22T21:58:35.862Z,23.01
2022-08-22T22:01:30.354Z,22.95
2022-08-22T22:04:00.898Z,22.93
2022-08-22T22:06:29.400Z,22.90
2022-08-22T22:08:57.900Z,22.86
2022-08-22T22:11:27.677Z,22.82
2022-08-22T22:13:56.108Z,22.77
2022-08-22T22:16:29.618Z,22.74
2022-08-22T22:18:58.124Z,22.72
2022-08-22T22:21:29.550Z,22.71
2022-08-22T22:23:58.592Z,22.71
2022-08-22T22:26:29.947Z,22.70
2022-08-22T22:28:59.733Z,22.70
2022-08-22T22:31:28.501Z,22.67
2022-08-22T22:33:56.978Z,22.65
2022-08-22T22:36:27.782Z,22.64
2022-08-22T22:38:56.228Z,22.63
2022-08-22T22:41:25.729Z,22.59
2022-08-22T22:43:56.764Z,22.55
2022-08-22T22:46:27.788Z,22.52
2022-08-22T22:48:56.669Z,22.48
2022-08-22T22:51:25.800Z,22.44
2022-08-22T22:53:54.137Z,22.40
2022-08-22T22:56:24.920Z,22.36
2022-08-22T22:59:00.969Z,22.33
2022-08-22T23:02:03.125Z,22.28
2022-08-22T23:04:33.997Z,22.26
2022-08-22T23:07:02.777Z,22.25
2022-08-22T23:09:38.479Z,22.21
2022-08-22T23:12:14.403Z,22.17
2022-08-22T23:14:44.282Z,22.15
2022-08-22T23:17:13.681Z,22.11
2022-08-22T23:19:42.881Z,22.08
2022-08-22T23:22:15.021Z,22.03
2022-08-22T23:24:43.689Z,22.00
2022-08-22T23:27:12.972Z,21.95
2022-08-22T23:29:43.506Z,21.92
2022-08-22T23:32:13.676Z,21.88
2022-08-22T23:34:46.109Z,21.87
2022-08-22T23:37:19.085Z,21.87
2022-08-22T23:39:48.260Z,21.84
2022-08-22T23:42:18.047Z,21.84
2022-08-22T23:44:47.923Z,21.83
2022-08-22T23:47:16.626Z,21.82
2022-08-22T23:49:45.149Z,21.82
2022-08-22T23:52:14.840Z,21.80
2022-08-22T23:54:43.364Z,21.77
2022-08-22T23:57:12.801Z,21.74
2022-08-22T23:59:48.071Z,21.73
